Charleston Air Force Base-International Airport Charleston US
ICAO: KCHS
IATA: CHS
Category: Large
Scheduled Services: Yes

Elevation: 46 ft
TransAlt. 18000 ft.

Airport Communications:
APP:30.692
APP:119.3
ATIS:124.75
CLNC DEL:118
DEP:120.7
GND:121.9
PMSV METRO:34.46
CONSOLIDATED COMD:134.1
PTD:37.22
ANDERSON RDO:122.2
TWR:126
UNICOM:122.95

KCHS Zoom In..

Runways:

(A) RW 03 length 7000 ft width 150 ft
---- / hdg 31

(B) RW 15 length 9001 ft width 200 ft
ILS 109.70 / hdg 154

(C) RW 21 length 7000 ft width 150 ft
---- / hdg 211

(D) RW 33 length 9001 ft width 200 ft
ILS 108.90 / hdg 334

Location; KCHS
Day. 20 / Time. 09.56 Zulu
* Altimeter: 30.24
* Temperature: 09° c. 48.2°f.
* Wind from: 030° Speed 10 kn with Gusts up to 21 kn.
Dewpoint: -01° c.
Visibility: 10 Statute Miles.
Clouds: Few 7500 ft.

KCHS 200956Z 03010G21KT 10SM FEW075 09/M01 A3024 RMK AO2 SLP240 T00941011


Wind From 030°
Speed 10 kn.

  YouTube Music Video
 
jpsmedia.com for Web Design  worldairports.se 2018   terms of use